Time;durP1;ratioP1;P1;durP2;ratioP2;P2;SDS_P1;SDS_P2;PMS_P1;PMS_P2;Temp;Humidity;BMP_temperature;BMP_pressure;BME280_temperature;BME280_humidity;BME280_pressure;Samples;Min_cycle;Max_cycle;Signal;HPM_P1;HPM_P2
2021/05/22 00:02:01;;;;;;;8.30;4.33;;;;;;;11.77;100.00;99888.46;1717398;82;21043;-76
2021/05/22 00:04:28;;;;;;;9.15;3.90;;;;;;;11.75;100.00;99888.64;1737267;82;21019;-75
2021/05/22 00:06:55;;;;;;;6.33;3.50;;;;;;;11.75;100.00;99890.00;1737344;82;21027;-75
2021/05/22 00:09:23;;;;;;;8.68;3.67;;;;;;;11.76;100.00;99886.28;1737279;82;21051;-75
2021/05/22 00:11:51;;;;;;;8.40;3.90;;;;;;;11.77;100.00;99889.33;1737343;82;21054;-76
2021/05/22 00:14:17;;;;;;;9.08;4.12;;;;;;;11.78;100.00;99884.74;1737623;82;21063;-77
2021/05/22 00:16:45;;;;;;;7.65;4.40;;;;;;;11.78;100.00;99892.34;1737143;82;21020;-77
2021/05/22 00:19:12;;;;;;;8.30;4.28;;;;;;;11.78;100.00;99897.77;1731994;82;21051;-75
2021/05/22 00:21:39;;;;;;;10.20;4.22;;;;;;;11.81;100.00;99903.34;1707759;84;21575;-75
2021/05/22 00:24:07;;;;;;;10.08;4.95;;;;;;;11.82;100.00;99910.44;1708126;84;21051;-75
2021/05/22 00:26:34;;;;;;;10.30;4.70;;;;;;;11.83;100.00;99906.72;1707863;84;21043;-74
2021/05/22 00:29:01;;;;;;;9.95;5.08;;;;;;;11.87;100.00;99912.61;1705683;83;21596;-76
2021/05/22 00:31:28;;;;;;;12.25;5.33;;;;;;;11.88;100.00;99911.08;1682306;85;21071;-75
2021/05/22 00:33:55;;;;;;;14.78;6.33;;;;;;;11.88;100.00;99909.72;1682422;85;21051;-75
2021/05/22 00:36:22;;;;;;;15.30;6.90;;;;;;;11.89;100.00;99911.91;1682743;85;21083;-75
2021/05/22 00:38:49;;;;;;;13.13;6.42;;;;;;;11.90;100.00;99910.89;1682536;85;21058;-75
2021/05/22 00:41:15;;;;;;;15.15;7.53;;;;;;;11.91;100.00;99902.59;1682912;85;21043;-74
2021/05/22 00:43:42;;;;;;;14.33;7.00;;;;;;;11.92;100.00;99904.81;1682987;85;21071;-76
2021/05/22 00:46:08;;;;;;;16.42;7.70;;;;;;;11.91;100.00;99898.52;1682691;85;21887;-75
2021/05/22 00:48:35;;;;;;;16.93;7.97;;;;;;;11.92;100.00;99889.91;1682521;85;21027;-75
2021/05/22 00:51:02;;;;;;;17.95;8.35;;;;;;;11.93;100.00;99892.44;1682749;85;21078;-75
2021/05/22 00:53:29;;;;;;;20.12;9.68;;;;;;;11.94;100.00;99893.27;1682811;85;21130;-75
2021/05/22 00:56:01;;;;;;;18.80;9.20;;;;;;;11.93;100.00;99887.02;1682665;85;21095;-76
2021/05/22 00:58:28;;;;;;;18.23;9.53;;;;;;;11.93;100.00;99885.66;1682597;85;21043;-75
2021/05/22 01:00:59;;;;;;;19.17;9.20;;;;;;;11.94;100.00;99895.45;1682377;85;21193;-74
2021/05/22 01:03:28;;;;;;;17.05;7.92;;;;;;;11.93;100.00;99903.27;1682294;84;21052;-74
2021/05/22 01:06:11;;;;;;;15.38;7.58;;;;;;;11.92;100.00;99904.28;1682201;85;21072;-75
2021/05/22 01:08:39;;;;;;;17.80;8.15;;;;;;;11.92;100.00;99902.93;1682230;85;21119;-76
2021/05/22 01:11:17;;;;;;;17.37;7.55;;;;;;;11.91;100.00;99894.46;1682183;85;21094;-76
2021/05/22 01:13:49;;;;;;;17.85;7.15;;;;;;;11.91;100.00;99893.63;1656658;85;21085;-75
2021/05/22 01:16:18;;;;;;;15.38;6.70;;;;;;;11.90;100.00;99881.95;1657057;86;21122;-75
2021/05/22 01:18:46;;;;;;;13.43;6.37;;;;;;;11.91;100.00;99880.91;1657034;85;21093;-75
2021/05/22 01:21:12;;;;;;;10.03;5.08;;;;;;;11.93;100.00;99878.02;1683169;85;21111;-75
2021/05/22 01:23:45;;;;;;;9.38;4.92;;;;;;;11.93;100.00;99884.31;1683177;85;21099;-75
2021/05/22 01:26:12;;;;;;;10.82;4.67;;;;;;;11.96;100.00;99883.09;1625629;88;21087;-75
2021/05/22 01:28:39;;;;;;;8.80;4.60;;;;;;;11.98;100.00;99889.16;1623605;88;21147;-75
2021/05/22 01:31:08;;;;;;;13.83;6.03;;;;;;;12.01;100.00;99886.09;1611323;89;21092;-75
2021/05/22 01:33:35;;;;;;;12.03;5.15;;;;;;;12.02;100.00;99879.63;1611206;89;21104;-76
2021/05/22 01:36:04;;;;;;;13.65;6.25;;;;;;;12.03;100.00;99877.25;1611125;89;21115;-76
2021/05/22 01:38:31;;;;;;;12.98;6.12;;;;;;;12.04;100.00;99880.80;1611281;89;21091;-75
2021/05/22 01:41:00;;;;;;;15.85;7.10;;;;;;;12.06;100.00;99882.31;1611183;89;21096;-76
2021/05/22 01:43:26;;;;;;;20.30;7.70;;;;;;;12.06;100.00;99874.70;1611514;89;21103;-76
2021/05/22 01:45:54;;;;;;;21.85;9.20;;;;;;;12.07;100.00;99872.30;1611106;89;21247;-75
2021/05/22 01:48:25;;;;;;;21.97;10.45;;;;;;;12.08;100.00;99868.58;1611377;89;21068;-75
2021/05/22 01:51:05;;;;;;;20.40;10.60;;;;;;;12.09;100.00;99872.47;1620344;88;21665;-76
2021/05/22 01:53:33;;;;;;;23.92;11.83;;;;;;;12.10;100.00;99876.84;1620234;88;21071;-76
2021/05/22 01:56:00;;;;;;;22.25;11.45;;;;;;;12.10;100.00;99886.33;1620262;88;21151;-75
2021/05/22 01:58:27;;;;;;;21.85;11.60;;;;;;;12.10;100.00;99896.34;1620442;88;21107;-76
2021/05/22 02:00:53;;;;;;;21.02;9.20;;;;;;;12.07;100.00;99896.17;1620253;88;21171;-76
2021/05/22 02:03:42;;;;;;;18.73;8.38;;;;;;;12.06;100.00;99893.67;1579731;88;21617;-76
2021/05/22 02:06:25;;;;;;;17.15;7.85;;;;;;;12.04;100.00;99888.44;1638841;87;21285;-75
2021/05/22 02:08:56;;;;;;;15.32;7.00;;;;;;;12.03;100.00;99883.20;1621708;88;21064;-74
2021/05/22 02:11:24;;;;;;;15.03;7.03;;;;;;;12.02;100.00;99882.86;1641209;87;21155;-75
2021/05/22 02:13:51;;;;;;;14.40;6.25;;;;;;;12.00;100.00;99893.05;1624540;88;21094;-76
2021/05/22 02:16:18;;;;;;;11.25;5.12;;;;;;;11.98;100.00;99895.93;1624392;88;21063;-76
2021/05/22 02:18:46;;;;;;;9.90;5.15;;;;;;;11.96;100.00;99902.88;1624441;87;21127;-75
2021/05/22 02:21:13;;;;;;;8.65;4.30;;;;;;;11.98;100.00;99912.19;1599060;88;21087;-76
2021/05/22 02:23:47;;;;;;;10.80;5.12;;;;;;;11.99;100.00;99912.53;1651631;86;21057;-76
2021/05/22 02:26:14;;;;;;;10.18;4.80;;;;;;;12.00;100.00;99908.78;1659706;86;21073;-76
2021/05/22 02:28:41;;;;;;;9.48;4.78;;;;;;;12.01;100.00;99899.64;1698412;84;21037;-75
2021/05/22 02:31:09;;;;;;;6.70;4.03;;;;;;;12.04;100.00;99897.06;1713362;84;21564;-75
2021/05/22 02:33:37;;;;;;;9.38;4.37;;;;;;;12.04;100.00;99895.70;1713282;84;21575;-76
2021/05/22 02:36:05;;;;;;;9.88;4.40;;;;;;;12.05;100.00;99902.30;1713263;84;21055;-76
2021/05/22 02:38:38;;;;;;;8.73;4.35;;;;;;;12.06;100.00;99911.30;1688261;85;21054;-76
2021/05/22 02:41:06;;;;;;;10.08;4.22;;;;;;;12.07;100.00;99911.08;1649879;86;21118;-76
2021/05/22 02:43:35;;;;;;;8.73;3.62;;;;;;;12.08;100.00;99916.84;1650008;87;21074;-76
2021/05/22 02:46:02;;;;;;;10.95;3.50;;;;;;;12.08;100.00;99921.43;1650055;87;21527;-75
2021/05/22 02:48:29;;;;;;;6.97;3.02;;;;;;;12.09;100.00;99917.19;1628076;87;21094;-75
2021/05/22 02:50:56;;;;;;;6.75;2.87;;;;;;;12.13;100.00;99922.56;1650035;87;21094;-76
2021/05/22 02:53:25;;;;;;;6.42;2.70;;;;;;;12.19;100.00;99912.01;1650310;87;21114;-76
2021/05/22 02:55:52;;;;;;;5.85;2.50;;;;;;;12.23;100.00;99911.44;1650079;87;21121;-75
2021/05/22 02:58:19;;;;;;;367.50;69.75;;;;;;;12.31;100.00;99909.17;1627978;87;21098;-76
2021/05/22 03:00:48;;;;;;;522.85;89.70;;;;;;;12.35;100.00;99899.11;1649868;87;21122;-77
2021/05/22 03:03:18;;;;;;;276.50;44.03;;;;;;;12.40;100.00;99905.34;1672449;85;21087;-76
2021/05/22 03:05:45;;;;;;;101.18;17.62;;;;;;;12.44;100.00;99903.92;1677344;85;21014;-76
2021/05/22 03:08:12;;;;;;;60.25;11.70;;;;;;;12.49;100.00;99906.92;1677358;85;21082;-75
2021/05/22 03:10:39;;;;;;;30.32;6.05;;;;;;;12.56;100.00;99912.97;1677339;85;21113;-76
2021/05/22 03:13:06;;;;;;;18.40;4.20;;;;;;;12.59;100.00;99909.86;1655966;85;21063;-74
2021/05/22 03:15:34;;;;;;;21.52;4.80;;;;;;;12.63;100.00;99926.11;1677368;85;21138;-76
2021/05/22 03:18:01;;;;;;;15.70;4.05;;;;;;;12.65;100.00;99933.02;1656032;87;21116;-75
2021/05/22 03:20:27;;;;;;;16.57;4.15;;;;;;;12.69;100.00;99943.81;1658154;85;21078;-76
2021/05/22 03:22:54;;;;;;;16.85;4.10;;;;;;;12.71;100.00;99949.92;1650019;85;21122;-76
2021/05/22 03:25:21;;;;;;;13.08;4.90;;;;;;;12.76;100.00;99964.78;1649855;87;21650;-75
2021/05/22 03:27:47;;;;;;;52.55;20.45;;;;;;;12.77;100.00;99971.38;1649925;87;21102;-75
2021/05/22 03:30:16;;;;;;;145.22;46.08;;;;;;;12.79;100.00;99980.17;1650169;87;21150;-76
2021/05/22 03:32:43;;;;;;;336.82;99.20;;;;;;;12.82;100.00;99996.58;1655380;85;21603;-77
2021/05/22 03:35:11;;;;;;;288.93;79.80;;;;;;;12.87;100.00;100006.36;1655283;87;21093;-75
2021/05/22 03:37:38;;;;;;;282.57;68.00;;;;;;;12.88;100.00;100007.54;1677927;84;20995;-75
2021/05/22 03:40:07;;;;;;;257.73;57.78;;;;;;;12.90;100.00;100014.14;1709199;84;21090;-77
2021/05/22 03:42:33;;;;;;;196.72;45.40;;;;;;;12.94;100.00;100025.46;1708931;84;21035;-76
2021/05/22 03:45:00;;;;;;;127.82;30.97;;;;;;;12.96;100.00;100030.19;1708903;84;21385;-75
2021/05/22 03:47:28;;;;;;;82.97;19.55;;;;;;;13.00;100.00;100036.42;1708899;84;21110;-76
2021/05/22 03:49:55;;;;;;;27.37;7.42;;;;;;;13.04;100.00;100033.65;1709091;84;21050;-76
2021/05/22 03:52:22;;;;;;;25.70;5.47;;;;;;;13.08;100.00;100037.70;1708890;84;21054;-77
2021/05/22 03:54:49;;;;;;;13.13;4.10;;;;;;;13.13;100.00;100037.64;1708886;84;21082;-77
2021/05/22 03:57:16;;;;;;;9.08;3.00;;;;;;;13.16;100.00;100031.31;1687816;85;21066;-77
2021/05/22 03:59:44;;;;;;;5.40;2.75;;;;;;;13.18;100.00;100029.25;1706277;84;21023;-76
2021/05/22 04:02:11;;;;;;;6.10;2.92;;;;;;;13.16;100.00;100025.89;1671892;85;21060;-75
2021/05/22 04:04:38;;;;;;;10.03;3.10;;;;;;;13.13;100.00;100026.25;1735385;83;21059;-75
2021/05/22 04:07:05;;;;;;;7.50;2.72;;;;;;;13.11;100.00;100033.22;1735533;83;21468;-76
2021/05/22 04:09:32;;;;;;;6.60;3.05;;;;;;;13.10;100.00;100037.48;1735449;83;21035;-75
2021/05/22 04:11:58;;;;;;;8.48;3.35;;;;;;;13.12;100.00;100044.95;1735362;83;21536;-75
2021/05/22 04:14:26;;;;;;;6.25;3.10;;;;;;;13.19;100.00;100046.38;1735221;83;21035;-78
2021/05/22 04:16:55;;;;;;;5.30;3.42;;;;;;;13.28;100.00;100038.48;1735282;82;21055;-77
2021/05/22 04:19:21;;;;;;;9.78;3.08;;;;;;;13.39;100.00;100040.73;1728203;83;21031;-76
2021/05/22 04:21:48;;;;;;;10.78;3.30;;;;;;;13.54;100.00;100032.55;1706211;84;21063;-75
2021/05/22 04:24:15;;;;;;;9.70;3.52;;;;;;;13.75;100.00;100034.98;1706104;84;21015;-77
2021/05/22 04:26:43;;;;;;;8.10;3.50;;;;;;;13.96;100.00;100036.89;1706102;84;21059;-76
2021/05/22 04:29:09;;;;;;;9.00;3.33;;;;;;;14.15;100.00;100039.49;1706311;83;21046;-77
2021/05/22 04:31:36;;;;;;;13.62;3.90;;;;;;;14.34;100.00;100042.91;1711343;83;21026;-77
2021/05/22 04:34:03;;;;;;;10.38;3.70;;;;;;;14.52;100.00;100047.88;1714929;84;21079;-75
2021/05/22 04:36:30;;;;;;;8.00;3.10;;;;;;;14.73;100.00;100051.11;1711214;84;21071;-76
2021/05/22 04:38:58;;;;;;;7.42;3.00;;;;;;;14.97;100.00;100050.32;1711429;84;21039;-78
2021/05/22 04:41:24;;;;;;;7.25;2.90;;;;;;;15.22;100.00;100055.29;1711640;84;21030;-77
2021/05/22 04:43:51;;;;;;;9.48;2.80;;;;;;;15.40;100.00;100051.49;1711430;84;21042;-77
2021/05/22 04:46:18;;;;;;;4.87;2.55;;;;;;;15.54;100.00;100045.05;1711360;84;21553;-77
2021/05/22 04:48:45;;;;;;;8.85;3.00;;;;;;;15.70;100.00;100045.22;1711355;84;21023;-77
2021/05/22 04:51:14;;;;;;;5.58;2.87;;;;;;;15.83;100.00;100040.89;1711663;84;21043;-77
2021/05/22 04:53:40;;;;;;;10.05;2.95;;;;;;;15.97;100.00;100045.36;1711529;84;21011;-77
2021/05/22 04:56:07;;;;;;;5.25;2.83;;;;;;;16.12;100.00;100043.80;1711458;84;21017;-77
2021/05/22 04:58:33;;;;;;;5.00;2.40;;;;;;;16.30;100.00;100059.02;1711571;84;21071;-78
2021/05/22 05:01:01;;;;;;;5.53;2.75;;;;;;;16.48;100.00;100056.20;1711261;84;21059;-77
2021/05/22 05:03:27;;;;;;;9.25;3.02;;;;;;;16.63;100.00;100049.19;1711466;82;21060;-79
2021/05/22 05:05:54;;;;;;;10.75;3.42;;;;;;;16.78;100.00;100052.52;1711262;84;21584;-76
2021/05/22 05:08:21;;;;;;;10.35;3.25;;;;;;;16.88;100.00;100052.14;1711370;84;21496;-75
2021/05/22 05:10:48;;;;;;;12.03;3.15;;;;;;;16.95;100.00;100052.97;1711470;84;21039;-74
2021/05/22 05:13:16;;;;;;;38.05;24.92;;;;;;;17.04;100.00;100062.61;1711370;84;21083;-73
2021/05/22 05:15:43;;;;;;;23.47;15.55;;;;;;;17.32;100.00;100066.14;1711492;84;21059;-74
2021/05/22 05:18:11;;;;;;;12.58;5.22;;;;;;;17.32;100.00;100066.14;1711359;84;21071;-74
2021/05/22 05:20:37;;;;;;;30.30;23.70;;;;;;;17.40;100.00;100072.17;1733567;82;21019;-78
2021/05/22 05:23:05;;;;;;;27.40;14.68;;;;;;;17.54;100.00;100089.38;1740380;82;21035;-77
2021/05/22 05:25:32;;;;;;;9.93;4.53;;;;;;;17.74;100.00;100075.65;1686286;85;21072;-76
2021/05/22 05:27:59;;;;;;;35.55;22.30;;;;;;;18.00;100.00;100080.69;1686480;85;21078;-78
2021/05/22 05:30:26;;;;;;;6.40;3.92;;;;;;;18.17;100.00;100087.33;1679384;85;21127;-75
2021/05/22 05:32:53;;;;;;;10.15;3.40;;;;;;;18.32;100.00;100087.55;1686591;85;21063;-77
2021/05/22 05:35:20;;;;;;;35.73;26.48;;;;;;;18.45;100.00;100086.61;1686314;85;21083;-76
2021/05/22 05:37:47;;;;;;;65.97;53.30;;;;;;;18.58;100.00;100092.83;1686051;85;21525;-75
2021/05/22 05:40:14;;;;;;;7.30;4.08;;;;;;;18.74;100.00;100095.55;1686486;85;21110;-75
2021/05/22 05:42:41;;;;;;;122.90;102.87;;;;;;;18.90;100.00;100086.50;1685892;85;21202;-74
2021/05/22 05:45:11;;;;;;;9.38;5.25;;;;;;;19.10;100.00;100084.39;1678392;85;21095;-75
2021/05/22 05:47:37;;;;;;;5.00;2.77;;;;;;;19.33;100.00;100085.09;1685493;85;21039;-74
2021/05/22 05:50:07;;;;;;;8.15;3.10;;;;;;;19.51;100.00;100082.92;1685141;85;21122;-75
2021/05/22 05:52:34;;;;;;;7.55;2.98;;;;;;;19.65;100.00;100078.09;1675114;85;21048;-74
2021/05/22 05:55:00;;;;;;;11.60;5.33;;;;;;;19.78;100.00;100081.25;1673723;85;21055;-72
2021/05/22 05:57:29;;;;;;;4.30;2.90;;;;;;;19.90;100.00;100070.31;1672220;85;21063;-72
2021/05/22 05:59:56;;;;;;;6.45;2.42;;;;;;;19.93;100.00;100075.89;1675470;85;20983;-74
2021/05/22 06:02:22;;;;;;;7.97;2.62;;;;;;;19.92;100.00;100069.57;1674650;85;21095;-71
2021/05/22 06:04:51;;;;;;;9.40;2.75;;;;;;;19.93;100.00;100073.14;1676218;85;21552;-72
2021/05/22 06:07:19;;;;;;;6.00;2.52;;;;;;;19.98;100.00;100075.48;1666745;85;21091;-72
2021/05/22 06:09:47;;;;;;;7.92;2.65;;;;;;;20.18;100.00;100070.25;1659323;86;21046;-73
2021/05/22 06:12:13;;;;;;;8.83;3.22;;;;;;;20.43;100.00;100074.20;1659634;86;21035;-73
2021/05/22 06:14:44;;;;;;;9.40;2.90;;;;;;;20.55;100.00;100069.56;1659520;86;21039;-73
2021/05/22 06:17:09;;;;;;;42.85;29.80;;;;;;;20.57;100.00;100078.41;1668110;85;21628;-72
2021/05/22 06:19:36;;;;;;;28.95;12.40;;;;;;;20.44;100.00;100074.51;1669245;85;21062;-73
2021/05/22 06:22:03;;;;;;;4.78;3.45;;;;;;;20.14;100.00;100082.78;1676762;85;21616;-73
2021/05/22 06:24:31;;;;;;;10.95;4.47;;;;;;;19.84;100.00;100085.80;1671808;85;21086;-73
2021/05/22 06:26:58;;;;;;;9.75;2.80;;;;;;;19.61;100.00;100086.48;1677140;85;21074;-74
2021/05/22 06:29:24;;;;;;;8.45;3.22;;;;;;;19.33;100.00;100087.02;1671066;85;21039;-75
2021/05/22 06:31:52;;;;;;;12.13;3.60;;;;;;;19.00;100.00;100092.83;1697405;82;21118;-73
2021/05/22 06:34:18;;;;;;;8.98;3.25;;;;;;;18.81;100.00;100090.02;1703911;84;21503;-70
2021/05/22 06:36:45;;;;;;;7.17;2.85;;;;;;;18.81;100.00;100079.06;1704403;84;21054;-73
2021/05/22 06:39:12;;;;;;;7.87;3.02;;;;;;;18.88;100.00;100079.88;1704287;84;21062;-73
2021/05/22 06:41:39;;;;;;;5.83;2.37;;;;;;;18.95;100.00;100079.82;1704047;84;21607;-74
2021/05/22 06:44:08;;;;;;;11.12;2.80;;;;;;;19.01;100.00;100080.81;1704112;84;21560;-75
2021/05/22 06:49:05;;;;;;;13.20;3.15;;;;;;;19.27;100.00;100076.97;1706923;82;21105;-73
2021/05/22 06:51:32;;;;;;;22.50;15.95;;;;;;;19.38;100.00;100071.27;1708685;83;21565;-73
2021/05/22 06:53:59;;;;;;;9.53;4.05;;;;;;;19.34;100.00;100074.99;1724201;83;21135;-73
2021/05/22 06:56:25;;;;;;;8.13;3.35;;;;;;;19.28;100.00;100067.66;1722363;83;21010;-73
2021/05/22 06:58:52;;;;;;;6.87;2.75;;;;;;;19.18;100.00;100066.84;1705103;83;21605;-74
2021/05/22 07:01:21;;;;;;;13.65;3.60;;;;;;;19.24;100.00;100059.60;1721428;83;21047;-76
2021/05/22 07:03:49;;;;;;;7.30;2.90;;;;;;;19.41;100.00;100065.33;1679170;83;21113;-74
2021/05/22 07:06:15;;;;;;;7.67;2.30;;;;;;;19.69;100.00;100053.81;1743762;82;21024;-73
2021/05/22 07:08:42;;;;;;;14.95;2.65;;;;;;;19.97;100.00;100048.27;1710851;82;21045;-73
2021/05/22 07:11:09;;;;;;;6.12;2.30;;;;;;;20.27;100.00;100042.24;1686175;83;21166;-74
2021/05/22 07:13:36;;;;;;;6.97;3.02;;;;;;;20.59;100.00;100039.71;1719020;83;21511;-74
2021/05/22 07:16:05;;;;;;;15.23;6.70;;;;;;;21.03;100.00;100034.73;1724937;83;21024;-77
2021/05/22 07:18:32;;;;;;;10.40;3.65;;;;;;;21.08;100.00;100038.98;1719349;82;20989;-73
2021/05/22 07:20:59;;;;;;;11.97;4.55;;;;;;;21.01;100.00;100034.97;1706626;83;21547;-74
2021/05/22 07:23:28;;;;;;;6.60;2.80;;;;;;;21.17;100.00;100028.45;1697475;83;21188;-76
2021/05/22 07:25:55;;;;;;;14.50;5.00;;;;;;;21.53;100.00;100028.72;1701078;83;21085;-74
2021/05/22 07:28:23;;;;;;;29.85;22.48;;;;;;;21.90;100.00;100026.97;1708485;83;21081;-74
2021/05/22 07:30:50;;;;;;;12.03;3.02;;;;;;;22.16;100.00;100015.86;1706848;82;21595;-73
2021/05/22 07:33:18;;;;;;;13.40;2.85;;;;;;;22.16;100.00;100021.91;1727977;82;21027;-71
2021/05/22 07:35:45;;;;;;;8.10;2.67;;;;;;;22.25;100.00;100017.66;1721894;82;21062;-74
2021/05/22 07:38:14;;;;;;;16.73;3.20;;;;;;;22.46;100.00;100016.67;1717840;82;21575;-78
2021/05/22 07:40:41;;;;;;;14.80;5.60;;;;;;;22.45;94.94;100010.86;1731811;82;21070;-75
2021/05/22 07:43:08;;;;;;;4.20;2.10;;;;;;;22.12;98.34;100023.50;1723461;82;21144;-74
2021/05/22 07:45:36;;;;;;;14.35;2.87;;;;;;;22.03;96.79;100013.95;1718543;82;21090;-73
2021/05/22 07:48:04;;;;;;;16.37;3.33;;;;;;;22.20;98.52;100013.44;1732827;82;21520;-76
2021/05/22 07:50:31;;;;;;;6.60;2.15;;;;;;;22.24;95.87;100020.66;1712577;82;21043;-76
2021/05/22 07:52:58;;;;;;;4.53;2.08;;;;;;;22.03;93.94;100012.05;1712437;84;21564;-75
2021/05/22 07:55:26;;;;;;;5.33;2.60;;;;;;;21.99;100.00;100013.61;1712714;84;21122;-76
2021/05/22 07:57:53;;;;;;;11.25;2.50;;;;;;;22.34;100.00;100010.69;1712694;84;21066;-76
2021/05/22 08:00:22;;;;;;;10.45;2.55;;;;;;;22.78;100.00;100001.74;1713136;84;21090;-75
2021/05/22 08:02:49;;;;;;;9.83;2.55;;;;;;;23.02;93.08;100001.00;1721189;82;21504;-76
2021/05/22 08:05:15;;;;;;;7.70;2.20;;;;;;;23.00;93.26;100003.18;1728838;82;21003;-75
2021/05/22 08:07:42;;;;;;;68.22;48.92;;;;;;;23.07;95.04;99994.20;1728474;82;21051;-77
2021/05/22 08:10:12;;;;;;;6.20;2.20;;;;;;;23.34;97.46;99995.35;1731861;82;21799;-75
2021/05/22 08:12:38;;;;;;;14.68;3.27;;;;;;;23.65;88.14;99987.72;1715536;82;21027;-78
2021/05/22 08:15:07;;;;;;;3.87;2.35;;;;;;;23.77;86.59;100000.01;1734429;82;21039;-78
2021/05/22 08:17:35;;;;;;;10.93;2.50;;;;;;;23.80;92.32;99991.77;1723794;82;21524;-75
2021/05/22 08:20:04;;;;;;;9.83;2.70;;;;;;;24.11;95.35;99987.39;1746737;81;21023;-75
2021/05/22 08:22:30;;;;;;;7.30;2.20;;;;;;;24.52;91.34;99983.58;1773611;81;21042;-75
2021/05/22 08:24:57;;;;;;;8.05;2.90;;;;;;;24.92;87.99;99979.47;1773409;81;21062;-77
2021/05/22 08:27:24;;;;;;;9.00;2.77;;;;;;;25.29;86.34;99980.52;1773675;81;21018;-78
2021/05/22 08:29:50;;;;;;;7.15;2.33;;;;;;;25.56;81.03;99967.88;1773726;81;21579;-75
2021/05/22 08:32:17;;;;;;;10.43;2.60;;;;;;;25.57;78.41;99962.07;1759556;81;21577;-76
2021/05/22 08:34:44;;;;;;;8.15;2.20;;;;;;;25.45;78.88;99971.73;1755967;82;21530;-76
2021/05/22 08:37:12;;;;;;;22.25;3.67;;;;;;;25.50;81.34;99971.75;1756071;82;21000;-75
2021/05/22 08:39:44;;;;;;;8.98;2.50;;;;;;;25.73;78.31;99968.48;1755941;81;21103;-76
2021/05/22 08:42:11;;;;;;;11.20;2.80;;;;;;;25.81;77.67;99964.33;1752992;82;21605;-76
2021/05/22 08:44:39;;;;;;;10.70;3.20;;;;;;;25.83;78.21;99975.14;1756266;81;21044;-75
2021/05/22 08:47:06;;;;;;;5.53;2.60;;;;;;;25.70;76.44;99970.97;1756046;82;21565;-76
2021/05/22 08:49:40;;;;;;;11.10;2.92;;;;;;;25.69;75.59;99974.82;1759426;81;21127;-75
2021/05/22 08:52:03;;;;;;;10.65;2.60;;;;;;;25.67;68.69;99979.81;1731383;82;21036;-76
2021/05/22 08:54:29;;;;;;;7.00;2.58;;;;;;;25.19;74.97;99991.77;1756012;82;21016;-76
2021/05/22 08:56:56;;;;;;;6.50;2.47;;;;;;;24.85;77.08;99986.34;1748072;82;21061;-75
2021/05/22 08:59:24;;;;;;;8.43;3.92;;;;;;;24.61;76.42;99979.81;1719297;83;21020;-76
2021/05/22 09:01:53;;;;;;;15.58;3.45;;;;;;;24.49;84.40;99977.75;1716234;83;21009;-75
2021/05/22 09:04:19;;;;;;;13.62;2.60;;;;;;;24.58;78.86;99976.22;1720869;83;21020;-74
2021/05/22 09:07:04;;;;;;;10.93;2.70;;;;;;;24.53;82.32;99983.06;1724649;83;21075;-76
2021/05/22 09:09:43;;;;;;;6.85;2.27;;;;;;;24.81;84.34;99986.05;1724313;83;21040;-77
2021/05/22 09:12:10;;;;;;;7.12;2.52;;;;;;;25.11;75.21;99982.62;1670874;86;21092;-74
2021/05/22 09:14:45;;;;;;;19.85;2.92;;;;;;;24.94;81.17;99984.73;1670488;86;21109;-75
2021/05/22 09:17:13;;;;;;;11.75;2.65;;;;;;;25.01;82.80;99975.64;1663423;86;21054;-76
2021/05/22 09:19:41;;;;;;;7.65;2.45;;;;;;;25.11;76.70;99973.50;1664851;86;21616;-77
2021/05/22 09:22:24;;;;;;;10.45;2.50;;;;;;;24.92;83.92;99964.81;1650018;87;21123;-77
2021/05/22 09:25:03;;;;;;;7.67;2.92;;;;;;;25.08;84.70;99967.94;1649896;87;21683;-76
2021/05/22 09:27:38;;;;;;;11.70;3.65;;;;;;;25.53;82.23;99962.34;1649856;87;21132;-78
2021/05/22 09:30:10;;;;;;;;;;;;;;;25.99;78.92;99959.41;1625668;88;21092;-76
2021/05/22 09:32:37;;;;;;;10.13;2.90;;;;;;;26.29;71.99;99964.98;1641751;85;20585;-75
2021/05/22 09:35:06;;;;;;;7.75;2.60;;;;;;;26.42;71.40;99959.42;1642312;87;21145;-77
2021/05/22 09:37:58;;;;;;;5.08;2.33;;;;;;;26.47;60.45;99969.13;1646657;86;21597;-76
2021/05/22 09:40:32;;;;;;;10.13;3.17;;;;;;;26.09;65.51;99959.42;1661956;86;21067;-76
2021/05/22 09:43:01;;;;;;;11.05;2.40;;;;;;;25.73;66.35;99956.58;1598531;90;21076;-76
2021/05/22 09:45:44;;;;;;;11.83;2.90;;;;;;;25.58;68.56;99957.36;1598146;90;21072;-77
2021/05/22 09:48:16;;;;;;;;;;;;;;;25.58;73.04;99951.26;1519228;94;21143;-77
2021/05/22 09:50:49;;;;;;;6.55;2.42;;;;;;;25.36;67.35;99950.66;1519735;94;20285;-77
2021/05/22 09:53:26;;;;;;;13.08;2.52;;;;;;;25.06;78.69;99959.08;1517632;94;21566;-77
2021/05/22 09:56:24;;;;;;;8.35;2.83;;;;;;;24.93;72.71;99960.94;1517748;94;21056;-79
2021/05/22 09:58:57;;;;;;;10.75;2.92;;;;;;;24.66;75.88;99962.44;1517611;94;21095;-77
2021/05/22 10:01:31;;;;;;;;;;;;;;;24.34;72.67;99961.91;1516970;94;21183;-78
2021/05/22 10:04:21;;;;;;;21.37;2.95;;;;;;;24.21;78.20;99961.25;1506469;95;20198;-77
2021/05/22 10:06:47;;;;;;;2.80;2.05;;;;;;;24.38;74.33;99961.13;1515786;94;21096;-77
2021/05/22 10:09:19;;;;;;;3.33;2.10;;;;;;;24.53;77.55;99955.42;1520892;94;21097;-76
2021/05/22 10:12:10;;;;;;;7.87;2.37;;;;;;;24.58;72.39;99949.41;1550813;92;21136;-78
2021/05/22 10:14:40;;;;;;;5.90;2.72;;;;;;;24.40;71.90;99953.39;1539925;92;21589;-75
2021/05/22 10:17:11;;;;;;;6.50;2.90;;;;;;;24.33;78.44;99966.61;1512107;95;21147;-79
2021/05/22 10:19:38;;;;;;;11.40;3.35;;;;;;;24.31;76.36;99952.75;1508474;95;21090;-78
2021/05/22 10:22:08;;;;;;;16.07;5.12;;;;;;;24.40;83.29;99945.11;1501056;96;21098;-74
2021/05/22 10:24:35;;;;;;;13.32;3.22;;;;;;;24.53;80.65;99956.80;1500918;96;21576;-75
2021/05/22 10:27:02;;;;;;;10.63;2.60;;;;;;;24.83;80.24;99951.48;1501089;96;21102;-75
2021/05/22 10:29:30;;;;;;;7.03;2.65;;;;;;;25.22;76.61;99962.75;1500193;96;21130;-75
2021/05/22 10:31:57;;;;;;;44.85;39.98;;;;;;;25.39;67.05;99956.48;1497228;95;21175;-77
2021/05/22 10:34:26;;;;;;;14.00;3.80;;;;;;;25.39;73.69;99952.34;1523180;94;21253;-77
2021/05/22 10:36:57;;;;;;;6.70;2.70;;;;;;;25.64;77.78;99955.42;1479046;96;21622;-75
2021/05/22 10:39:44;;;;;;;9.05;3.02;;;;;;;25.75;72.31;99964.05;1489441;95;21125;-74
2021/05/22 10:42:29;;;;;;;17.98;4.67;;;;;;;25.71;70.76;99961.00;1508843;95;21105;-74
2021/05/22 10:44:58;;;;;;;15.05;2.75;;;;;;;25.72;76.91;99961.27;1529560;92;21122;-74
2021/05/22 10:47:28;;;;;;;6.30;2.40;;;;;;;25.81;80.43;99972.64;1554976;92;21099;-74
2021/05/22 10:50:01;;;;;;;8.10;2.60;;;;;;;25.97;75.79;99972.14;1554826;92;21084;-75
2021/05/22 10:52:33;;;;;;;5.92;2.35;;;;;;;25.92;71.43;99977.11;1554760;92;21178;-74
2021/05/22 10:55:12;;;;;;;10.18;2.60;;;;;;;25.63;68.60;99981.47;1554653;92;21124;-76
2021/05/22 10:57:59;;;;;;;10.23;2.10;;;;;;;25.12;72.64;99982.06;1553390;92;21616;-76
2021/05/22 11:00:27;;;;;;;4.85;2.30;;;;;;;24.70;71.29;99986.53;1552130;92;21072;-76
2021/05/22 11:03:01;;;;;;;15.13;3.35;;;;;;;24.45;77.92;99980.22;1538596;92;21114;-77
2021/05/22 11:05:35;;;;;;;13.98;2.90;;;;;;;24.55;79.59;99969.27;1528937;94;21136;-76
2021/05/22 11:08:11;;;;;;;7.95;3.30;;;;;;;24.70;79.40;99977.39;1555438;92;21094;-76
2021/05/22 11:10:49;;;;;;;8.28;2.40;;;;;;;24.80;74.17;99975.52;1555605;92;21172;-73
2021/05/22 11:13:28;;;;;;;4.62;2.15;;;;;;;24.90;76.72;99973.94;1561837;91;21179;-74
2021/05/22 11:15:56;;;;;;;7.35;2.60;;;;;;;24.90;74.22;99979.47;1595376;90;21095;-74
2021/05/22 11:18:36;;;;;;;5.22;1.80;;;;;;;24.88;79.14;99963.67;1595378;90;21106;-73
2021/05/22 11:21:18;;;;;;;10.65;2.62;;;;;;;24.96;76.65;99962.61;1598081;90;21123;-74
2021/05/22 11:24:05;;;;;;;9.48;3.35;;;;;;;25.12;75.38;99968.23;1598247;90;21098;-74
2021/05/22 11:26:59;;;;;;;14.35;4.78;;;;;;;25.23;75.69;99967.72;1599372;90;21143;-75
2021/05/22 11:29:49;;;;;;;36.20;26.12;;;;;;;25.56;73.03;99965.93;1567540;89;21106;-73
2021/05/22 11:32:45;;;;;;;4.90;2.27;;;;;;;26.06;71.20;99956.63;1589930;87;21153;-76